Time;durP1;ratioP1;P1;durP2;ratioP2;P2;SDS_P1;SDS_P2;PMS_P1;PMS_P2;Temp;Humidity;BMP_temperature;BMP_pressure;BME280_temperature;BME280_humidity;BME280_pressure;Samples;Min_cycle;Max_cycle;Signal;HPM_P1;HPM_P2
2023/02/24 00:01:41;;;;;;;21.30;7.20;;;4.30;99.90;;;;;;4999976;28;20423;-58
2023/02/24 00:04:11;;;;;;;19.87;7.30;;;4.30;99.90;;;;;;4991164;28;20452;-58
2023/02/24 00:06:40;;;;;;;14.97;7.00;;;4.30;99.90;;;;;;5005869;28;20435;-58
2023/02/24 00:09:09;;;;;;;19.60;7.60;;;4.30;99.90;;;;;;4997527;28;20427;-58
2023/02/24 00:11:37;;;;;;;17.70;7.80;;;4.30;99.90;;;;;;5002344;28;20473;-58
2023/02/24 00:14:08;;;;;;;12.20;7.00;;;4.30;99.90;;;;;;5005302;28;20467;-59
2023/02/24 00:16:36;;;;;;;18.50;7.30;;;4.30;99.90;;;;;;5003782;28;20424;-57
2023/02/24 00:19:02;;;;;;;19.73;6.87;;;4.30;99.90;;;;;;5002643;28;20435;-58
2023/02/24 00:21:28;;;;;;;23.47;7.97;;;4.30;99.90;;;;;;5006638;28;20424;-58
2023/02/24 00:23:54;;;;;;;25.13;6.90;;;4.20;99.90;;;;;;5007650;28;20471;-57
2023/02/24 00:26:20;;;;;;;23.60;8.53;;;4.30;99.90;;;;;;5002464;28;20420;-57
2023/02/24 00:28:46;;;;;;;38.20;10.07;;;4.20;99.90;;;;;;5003809;28;20195;-58
2023/02/24 00:31:16;;;;;;;21.07;8.83;;;4.20;99.90;;;;;;5008097;28;20431;-58
2023/02/24 00:33:44;;;;;;;21.80;9.30;;;4.20;99.90;;;;;;5015351;28;20210;-56
2023/02/24 00:36:22;;;;;;;35.73;11.40;;;4.20;99.90;;;;;;5010424;28;20408;-58
2023/02/24 00:38:49;;;;;;;30.77;10.17;;;4.20;99.90;;;;;;5009157;28;20983;-57
2023/02/24 00:41:17;;;;;;;45.47;11.83;;;4.20;99.90;;;;;;5004490;28;20428;-57
2023/02/24 00:43:45;;;;;;;35.00;12.33;;;4.20;99.90;;;;;;5000103;28;20844;-58
2023/02/24 00:46:16;;;;;;;31.13;11.80;;;4.20;99.90;;;;;;5014700;28;20476;-58
2023/02/24 00:48:46;;;;;;;65.20;12.70;;;4.30;99.90;;;;;;5009237;28;20435;-55
2023/02/24 00:51:15;;;;;;;58.17;11.80;;;4.20;99.90;;;;;;5004282;28;20436;-59
2023/02/24 00:53:42;;;;;;;48.30;12.60;;;4.20;99.90;;;;;;5022896;28;20459;-58
2023/02/24 00:56:12;;;;;;;46.43;11.90;;;4.20;99.90;;;;;;4999528;28;20435;-59
2023/02/24 00:58:43;;;;;;;90.93;13.00;;;4.20;99.90;;;;;;4993279;28;20460;-58
2023/02/24 01:01:18;;;;;;;89.77;11.73;;;4.20;99.90;;;;;;4986150;28;21014;-58
2023/02/24 01:03:45;;;;;;;114.17;12.70;;;4.20;99.90;;;;;;4989445;28;20581;-57
2023/02/24 01:06:12;;;;;;;59.60;11.17;;;4.10;99.90;;;;;;4993551;28;20423;-59
2023/02/24 01:08:41;;;;;;;89.10;12.70;;;4.10;99.90;;;;;;5000042;28;20459;-59
2023/02/24 01:13:52;;;;;;;55.97;11.27;;;4.00;99.90;;;;;;4986682;28;20627;-58
2023/02/24 01:16:18;;;;;;;51.20;11.43;;;4.00;99.90;;;;;;4984184;28;20816;-57
2023/02/24 01:18:46;;;;;;;70.80;13.27;;;3.90;99.90;;;;;;4992759;28;20286;-58
2023/02/24 01:21:13;;;;;;;72.80;10.87;;;3.90;99.90;;;;;;5008185;28;20219;-58
2023/02/24 01:23:40;;;;;;;48.83;12.70;;;3.90;99.90;;;;;;5001801;28;20987;-57
2023/02/24 01:26:07;;;;;;;122.17;13.53;;;3.90;99.90;;;;;;5001988;28;20439;-59
2023/02/24 01:28:32;;;;;;;74.80;12.67;;;3.90;99.90;;;;;;5007520;28;20443;-59
2023/02/24 01:31:02;;;;;;;104.03;14.13;;;3.80;99.90;;;;;;5006274;28;20442;-58
2023/02/24 01:33:28;;;;;;;71.23;14.23;;;3.80;99.90;;;;;;5003068;28;20663;-58
2023/02/24 01:35:55;;;;;;;26.50;10.80;;;3.80;99.90;;;;;;5014654;28;20469;-59
2023/02/24 01:38:24;;;;;;;53.50;12.57;;;3.80;99.90;;;;;;5005348;28;20470;-58
2023/02/24 01:40:58;;;;;;;53.27;10.37;;;3.80;99.90;;;;;;5005132;28;20963;-58
2023/02/24 01:43:24;;;;;;;41.47;11.40;;;3.80;99.90;;;;;;5005050;28;20441;-57
2023/02/24 01:45:52;;;;;;;53.53;11.60;;;3.80;99.90;;;;;;5008196;28;20427;-58
2023/02/24 01:48:18;;;;;;;37.30;12.07;;;3.80;99.90;;;;;;5006125;28;20199;-59
2023/02/24 01:50:44;;;;;;;31.53;11.93;;;3.80;99.90;;;;;;5002111;28;20431;-59
2023/02/24 01:53:11;;;;;;;30.63;10.97;;;3.80;99.90;;;;;;5004069;28;20200;-59
2023/02/24 01:55:49;;;;;;;27.67;11.30;;;3.80;99.90;;;;;;5003947;28;20432;-58
2023/02/24 01:58:22;;;;;;;25.10;10.00;;;3.80;99.90;;;;;;5009473;28;20485;-58
2023/02/24 02:00:48;;;;;;;54.37;11.80;;;3.80;99.90;;;;;;5008389;28;20487;-58
2023/02/24 02:03:23;;;;;;;33.30;9.70;;;3.80;99.90;;;;;;5011479;28;20500;-58
2023/02/24 02:05:50;;;;;;;47.23;10.10;;;3.70;99.90;;;;;;5007988;28;20667;-57
2023/02/24 02:08:18;;;;;;;39.73;10.70;;;3.70;99.90;;;;;;4999555;28;20832;-58
2023/02/24 02:10:45;;;;;;;74.77;12.00;;;3.70;99.90;;;;;;5006804;28;20441;-58
2023/02/24 02:13:13;;;;;;;81.30;14.30;;;3.70;99.90;;;;;;5004761;28;20489;-58
2023/02/24 02:15:59;;;;;;;25.40;10.40;;;3.70;99.90;;;;;;5004693;28;20435;-59
2023/02/24 02:18:32;;;;;;;64.13;14.20;;;3.70;99.90;;;;;;5005921;28;20451;-58
2023/02/24 02:21:08;;;;;;;101.50;15.83;;;3.70;99.90;;;;;;5007574;28;20419;-58
2023/02/24 02:23:34;;;;;;;57.13;15.57;;;3.70;99.90;;;;;;4993741;28;22719;-58
2023/02/24 02:26:25;;;;;;;60.23;17.03;;;3.60;99.90;;;;;;4988484;28;20523;-58
2023/02/24 02:29:15;;;;;;;82.13;17.13;;;3.60;99.90;;;;;;5006379;28;20544;-58
2023/02/24 02:32:15;;;;;;;124.90;17.50;;;3.60;99.90;;;;;;5009540;28;20426;-58
2023/02/24 02:35:01;;;;;;;150.20;19.20;;;3.60;99.90;;;;;;5010628;28;20431;-58
2023/02/24 02:37:34;;;;;;;140.47;19.73;;;3.60;99.90;;;;;;5007008;28;20490;-58
2023/02/24 02:40:06;;;;;;;90.80;18.50;;;3.60;99.90;;;;;;5006842;28;20438;-58
2023/02/24 02:42:37;;;;;;;103.87;18.77;;;3.60;99.90;;;;;;5011038;28;20451;-57
2023/02/24 02:45:06;;;;;;;58.80;16.63;;;3.60;99.90;;;;;;5013105;28;21005;-60
2023/02/24 02:47:40;;;;;;;65.27;18.60;;;3.60;99.90;;;;;;5010769;28;20477;-58
2023/02/24 02:50:08;;;;;;;84.20;21.70;;;3.60;99.90;;;;;;5010377;28;20443;-57
2023/02/24 02:52:44;;;;;;;61.23;19.20;;;3.60;99.90;;;;;;5002311;28;20439;-58
2023/02/24 02:55:46;;;;;;;56.67;19.20;;;3.60;99.90;;;;;;5025033;28;20770;-59
2023/02/24 02:58:18;;;;;;;64.23;16.57;;;3.60;99.90;;;;;;5003349;28;20466;-58
2023/02/24 03:01:00;;;;;;;67.60;17.37;;;3.60;99.90;;;;;;5005669;28;20471;-59
2023/02/24 03:03:30;;;;;;;47.57;15.73;;;3.60;99.90;;;;;;5013189;28;20987;-58
2023/02/24 03:06:05;;;;;;;49.80;14.77;;;3.60;99.90;;;;;;5009241;28;20454;-58
2023/02/24 03:08:36;;;;;;;59.40;16.10;;;3.60;99.90;;;;;;5011718;28;20433;-59
2023/02/24 03:11:06;;;;;;;60.40;14.40;;;3.60;99.90;;;;;;5007569;28;20428;-58
2023/02/24 03:13:35;;;;;;;48.77;14.77;;;3.60;99.90;;;;;;5013086;28;20473;-59
2023/02/24 03:16:03;;;;;;;83.73;17.00;;;3.50;99.90;;;;;;5004235;28;20431;-58
2023/02/24 03:18:36;;;;;;;121.50;18.10;;;3.50;99.90;;;;;;5007001;28;20817;-58
2023/02/24 03:21:15;;;;;;;55.73;15.97;;;3.50;99.90;;;;;;5012849;28;20793;-57
2023/02/24 03:23:48;;;;;;;73.60;16.90;;;3.50;99.90;;;;;;5010049;28;20851;-58
2023/02/24 03:26:20;;;;;;;68.07;15.47;;;3.50;99.90;;;;;;5010319;28;20443;-59
2023/02/24 03:29:06;;;;;;;76.10;14.90;;;3.50;99.90;;;;;;5009176;28;20436;-57
2023/02/24 03:32:08;;;;;;;104.63;15.67;;;3.50;99.90;;;;;;5017611;28;20435;-58
2023/02/24 03:34:45;;;;;;;49.07;14.20;;;3.50;99.90;;;;;;5004073;28;20965;-58
2023/02/24 03:37:11;;;;;;;68.73;15.20;;;3.40;99.90;;;;;;5010732;28;20987;-58
2023/02/24 03:39:37;;;;;;;78.37;14.70;;;3.40;99.90;;;;;;5011154;28;20518;-58
2023/02/24 03:42:18;;;;;;;144.80;18.23;;;3.40;99.90;;;;;;5011501;28;20434;-57
2023/02/24 03:44:44;;;;;;;54.67;17.70;;;3.40;99.90;;;;;;5007868;28;20434;-57
2023/02/24 03:47:10;;;;;;;91.70;16.87;;;3.40;99.90;;;;;;5009336;28;20431;-58
2023/02/24 03:49:37;;;;;;;81.57;16.30;;;3.40;99.90;;;;;;5005146;28;20431;-58
2023/02/24 03:52:32;;;;;;;133.00;19.10;;;3.40;99.90;;;;;;5003614;28;20439;-57
2023/02/24 03:55:42;;;;;;;148.50;19.60;;;3.30;99.90;;;;;;5001167;28;20941;-58
2023/02/24 03:58:17;;;;;;;112.57;17.70;;;3.30;99.90;;;;;;5004041;28;20474;-58
2023/02/24 04:00:43;;;;;;;98.87;19.20;;;3.20;99.90;;;;;;5005271;28;20429;-57
2023/02/24 04:03:15;;;;;;;115.30;20.10;;;3.20;99.90;;;;;;5009096;28;20442;-58
2023/02/24 04:05:51;;;;;;;75.97;16.67;;;3.20;99.90;;;;;;5008986;28;20436;-58
2023/02/24 04:08:22;;;;;;;77.13;17.80;;;3.10;99.90;;;;;;5005603;28;20447;-58
2023/02/24 04:10:56;;;;;;;60.53;18.67;;;3.10;99.90;;;;;;5008199;28;20438;-58
2023/02/24 04:13:27;;;;;;;47.90;14.13;;;3.10;99.90;;;;;;5010839;28;20462;-57
2023/02/24 04:16:28;;;;;;;49.90;17.53;;;3.10;99.90;;;;;;5008565;28;20434;-58
2023/02/24 04:19:02;;;;;;;53.27;16.40;;;3.10;99.90;;;;;;4994737;28;20470;-58
2023/02/24 04:21:30;;;;;;;81.77;15.87;;;3.10;99.90;;;;;;5010027;28;20431;-59
2023/02/24 04:23:59;;;;;;;124.70;17.17;;;3.10;99.90;;;;;;5005203;28;20462;-58
2023/02/24 04:26:26;;;;;;;53.47;14.10;;;3.10;99.90;;;;;;5006040;28;20463;-58
2023/02/24 04:28:53;;;;;;;92.53;15.10;;;3.10;99.90;;;;;;5002122;28;20455;-58
2023/02/24 04:31:21;;;;;;;56.83;15.93;;;3.10;99.90;;;;;;5008721;28;20424;-57
2023/02/24 04:33:49;;;;;;;133.43;17.20;;;3.10;99.90;;;;;;5003957;28;20454;-58
2023/02/24 04:36:16;;;;;;;78.63;15.80;;;3.10;99.90;;;;;;5010203;28;20943;-58
2023/02/24 04:38:42;;;;;;;65.97;16.40;;;3.10;99.90;;;;;;5006183;28;20474;-58
2023/02/24 04:41:07;;;;;;;123.13;17.13;;;3.10;99.90;;;;;;5009175;28;20424;-59
2023/02/24 04:43:34;;;;;;;69.23;15.93;;;3.10;99.90;;;;;;5007759;28;20715;-58
2023/02/24 04:46:06;;;;;;;101.30;16.10;;;3.10;99.90;;;;;;5007306;28;20685;-57
2023/02/24 04:48:32;;;;;;;107.40;15.00;;;3.10;99.90;;;;;;5011624;28;20423;-58
2023/02/24 04:51:01;;;;;;;81.87;14.60;;;3.00;99.90;;;;;;5006309;28;20431;-58
2023/02/24 04:53:27;;;;;;;86.03;12.97;;;3.00;99.90;;;;;;4997297;28;20529;-58
2023/02/24 04:55:53;;;;;;;74.13;12.53;;;3.00;99.90;;;;;;4997125;28;20439;-57
2023/02/24 04:58:21;;;;;;;86.30;13.77;;;2.90;99.90;;;;;;5003466;28;20532;-58
2023/02/24 05:00:51;;;;;;;81.53;14.53;;;2.90;99.90;;;;;;4999934;28;20199;-58
2023/02/24 05:03:18;;;;;;;161.20;15.77;;;2.80;99.90;;;;;;5002182;28;20451;-57
2023/02/24 05:05:58;;;;;;;82.03;15.27;;;2.80;99.90;;;;;;5002757;28;21220;-57
2023/02/24 05:08:26;;;;;;;101.40;14.83;;;2.80;99.90;;;;;;5003705;28;20494;-57
2023/02/24 05:10:53;;;;;;;204.80;17.13;;;2.80;99.90;;;;;;4989642;28;20435;-58
2023/02/24 05:13:25;;;;;;;117.30;14.17;;;2.80;99.90;;;;;;4992220;28;21169;-58
2023/02/24 05:15:51;;;;;;;166.77;16.80;;;2.80;99.90;;;;;;4998630;28;20434;-58
2023/02/24 05:18:17;;;;;;;63.30;14.50;;;2.80;99.90;;;;;;4999069;28;20463;-57
2023/02/24 05:23:38;;;;;;;54.63;12.57;;;2.80;99.90;;;;;;4993830;28;20529;-57
2023/02/24 05:26:09;;;;;;;133.17;17.00;;;2.80;99.90;;;;;;4999210;28;20522;-57
2023/02/24 05:28:39;;;;;;;133.83;15.00;;;2.80;99.90;;;;;;4994802;28;20446;-54
2023/02/24 05:31:13;;;;;;;117.97;14.17;;;2.80;99.90;;;;;;5000385;28;20420;-58
2023/02/24 05:33:41;;;;;;;54.10;11.90;;;2.80;99.90;;;;;;4999944;28;20554;-58
2023/02/24 05:36:09;;;;;;;50.13;12.80;;;2.80;99.90;;;;;;5002958;28;20444;-59
2023/02/24 05:38:36;;;;;;;62.47;13.33;;;2.80;99.90;;;;;;5006758;28;20488;-58
2023/02/24 05:41:16;;;;;;;58.97;13.70;;;2.80;99.90;;;;;;4998350;28;21091;-58
2023/02/24 05:43:47;;;;;;;63.60;13.00;;;2.80;99.90;;;;;;5009550;28;20443;-58
2023/02/24 05:46:15;;;;;;;102.30;14.20;;;2.80;99.90;;;;;;5005897;28;20899;-57
2023/02/24 05:48:42;;;;;;;122.63;14.80;;;2.70;99.90;;;;;;5003821;28;20439;-58
2023/02/24 05:51:11;;;;;;;70.30;12.87;;;2.70;99.90;;;;;;5000081;28;20486;-58
2023/02/24 05:53:40;;;;;;;68.23;12.97;;;2.70;99.90;;;;;;5004639;28;20465;-58
2023/02/24 05:56:10;;;;;;;61.70;13.33;;;2.60;99.90;;;;;;4998517;28;20952;-58
2023/02/24 05:58:39;;;;;;;105.73;14.77;;;2.60;99.90;;;;;;4989346;28;20553;-56
2023/02/24 06:01:15;;;;;;;45.07;11.83;;;2.60;99.90;;;;;;5000564;28;20510;-58
2023/02/24 06:03:45;;;;;;;95.40;14.50;;;2.70;99.90;;;;;;5007659;28;20553;-58
2023/02/24 06:06:11;;;;;;;53.57;11.60;;;2.60;99.90;;;;;;4998963;28;20427;-56
2023/02/24 06:08:48;;;;;;;83.83;14.27;;;2.60;99.90;;;;;;5006231;28;21041;-58
2023/02/24 06:11:15;;;;;;;82.43;14.43;;;2.60;99.90;;;;;;5005422;28;20434;-58
2023/02/24 06:13:46;;;;;;;46.50;13.30;;;2.60;99.90;;;;;;5011914;28;20478;-55
2023/02/24 06:16:13;;;;;;;73.83;14.10;;;2.60;99.90;;;;;;5002955;28;20527;-57
2023/02/24 06:18:40;;;;;;;121.53;15.03;;;2.60;99.90;;;;;;5004803;28;20966;-57
2023/02/24 06:21:11;;;;;;;79.00;14.63;;;2.60;99.90;;;;;;5004332;28;20435;-57
2023/02/24 06:23:38;;;;;;;120.73;15.23;;;2.60;99.90;;;;;;5003705;28;20455;-58
2023/02/24 06:26:04;;;;;;;84.17;14.17;;;2.60;99.90;;;;;;5004268;28;20430;-57
2023/02/24 06:28:32;;;;;;;75.73;13.47;;;2.60;99.90;;;;;;5004681;28;20441;-57
2023/02/24 06:31:05;;;;;;;63.30;13.57;;;2.60;99.90;;;;;;5006489;28;20443;-57
2023/02/24 06:33:35;;;;;;;75.80;15.43;;;2.50;99.90;;;;;;5003533;28;20454;-56
2023/02/24 06:36:02;;;;;;;64.23;14.50;;;2.60;99.90;;;;;;4997541;28;20424;-58
2023/02/24 06:38:29;;;;;;;58.63;13.40;;;2.60;99.90;;;;;;5009301;28;20481;-58
2023/02/24 06:41:08;;;;;;;44.60;12.33;;;2.60;99.90;;;;;;4996967;28;20505;-56
2023/02/24 06:43:37;;;;;;;65.90;13.13;;;2.60;99.90;;;;;;5005027;28;20467;-57
2023/02/24 06:46:04;;;;;;;83.67;13.17;;;2.60;99.90;;;;;;5018773;28;20436;-55
2023/02/24 06:48:32;;;;;;;77.60;13.03;;;2.60;99.90;;;;;;5009315;28;20444;-58
2023/02/24 06:51:04;;;;;;;72.33;14.67;;;2.60;99.90;;;;;;5004034;28;20439;-57
2023/02/24 06:53:33;;;;;;;129.30;16.83;;;2.60;99.90;;;;;;5011391;28;20548;-55
2023/02/24 06:56:05;;;;;;;77.73;16.00;;;2.60;99.90;;;;;;5009568;28;20512;-58
2023/02/24 06:58:31;;;;;;;81.73;15.47;;;2.60;99.90;;;;;;5002142;28;21007;-56
2023/02/24 07:00:57;;;;;;;56.27;13.97;;;2.60;99.90;;;;;;5002755;28;20490;-57
2023/02/24 07:03:37;;;;;;;95.67;14.50;;;2.60;99.90;;;;;;5008762;28;20226;-58
2023/02/24 07:06:19;;;;;;;104.03;14.77;;;2.60;99.90;;;;;;5000706;28;20263;-56
2023/02/24 07:08:46;;;;;;;116.93;17.40;;;2.60;99.90;;;;;;5006904;28;20533;-57
2023/02/24 07:11:12;;;;;;;81.07;19.03;;;2.60;99.90;;;;;;5009709;28;20529;-57
2023/02/24 07:13:39;;;;;;;249.57;24.63;;;2.50;99.90;;;;;;5006617;28;20475;-57
2023/02/24 07:16:06;;;;;;;129.30;21.27;;;2.50;99.90;;;;;;5003423;28;20510;-57
2023/02/24 07:18:35;;;;;;;110.90;21.97;;;2.50;99.90;;;;;;5012428;28;20463;-57
2023/02/24 07:21:04;;;;;;;65.77;18.77;;;2.50;99.90;;;;;;5004581;28;20502;-58
2023/02/24 07:23:30;;;;;;;50.33;15.40;;;2.50;99.90;;;;;;5011969;28;20431;-57
2023/02/24 07:25:59;;;;;;;64.83;15.93;;;2.50;99.90;;;;;;5011809;28;20466;-57
2023/02/24 07:28:24;;;;;;;78.83;14.97;;;2.50;99.90;;;;;;5011924;28;20434;-57
2023/02/24 07:30:51;;;;;;;68.87;14.53;;;2.50;99.90;;;;;;5002530;28;20435;-56
2023/02/24 07:33:18;;;;;;;62.03;15.40;;;2.60;99.90;;;;;;4995911;28;20262;-57
2023/02/24 07:35:49;;;;;;;43.20;13.63;;;2.60;99.90;;;;;;5003458;28;20489;-56
2023/02/24 07:38:18;;;;;;;48.53;13.17;;;2.60;99.90;;;;;;5012196;28;20458;-57
2023/02/24 07:40:46;;;;;;;61.07;13.10;;;2.70;99.90;;;;;;5005669;28;20439;-57
2023/02/24 07:43:11;;;;;;;71.27;13.80;;;2.70;99.90;;;;;;5007299;28;20451;-56
2023/02/24 07:45:37;;;;;;;31.00;12.70;;;2.70;99.90;;;;;;5011040;28;20794;-57
2023/02/24 07:48:03;;;;;;;33.60;11.23;;;2.80;99.90;;;;;;5009660;28;20180;-58
2023/02/24 07:50:31;;;;;;;40.50;13.57;;;2.80;99.90;;;;;;5001298;28;20609;-58
2023/02/24 07:52:58;;;;;;;28.13;11.70;;;2.90;99.90;;;;;;5010359;28;21041;-58
2023/02/24 07:55:24;;;;;;;35.03;12.33;;;3.00;99.90;;;;;;5008993;28;20443;-55
2023/02/24 07:57:50;;;;;;;40.03;11.53;;;3.10;99.90;;;;;;5011377;28;20547;-57
2023/02/24 08:00:19;;;;;;;53.40;11.40;;;3.10;99.90;;;;;;5005433;28;21164;-57
2023/02/24 08:02:49;;;;;;;29.27;12.27;;;3.20;99.90;;;;;;5009399;28;20459;-59
2023/02/24 08:05:18;;;;;;;60.83;17.47;;;3.20;99.90;;;;;;5001839;28;20440;-56
2023/02/24 08:07:48;;;;;;;81.43;18.33;;;3.20;99.90;;;;;;5006864;28;20809;-58
2023/02/24 08:10:24;;;;;;;78.10;18.30;;;3.30;99.90;;;;;;5005346;28;20911;-57
2023/02/24 08:13:01;;;;;;;134.83;18.27;;;3.30;99.90;;;;;;5011689;28;20521;-57
2023/02/24 08:15:32;;;;;;;49.20;16.47;;;3.20;99.90;;;;;;5002523;28;20528;-59
2023/02/24 08:17:59;;;;;;;77.33;17.37;;;3.30;99.90;;;;;;5006412;28;20471;-57
2023/02/24 08:20:26;;;;;;;50.70;16.93;;;3.30;99.90;;;;;;5008880;28;20464;-57
2023/02/24 08:22:53;;;;;;;55.90;17.80;;;3.40;99.90;;;;;;5010232;28;20463;-57
2023/02/24 08:25:34;;;;;;;98.67;18.13;;;3.40;99.90;;;;;;5005659;28;20440;-57
2023/02/24 08:28:04;;;;;;;58.30;15.80;;;3.40;99.90;;;;;;5007506;28;20431;-58
2023/02/24 08:30:37;;;;;;;49.50;15.63;;;3.40;99.90;;;;;;5007084;28;20437;-57
2023/02/24 08:33:04;;;;;;;58.60;16.80;;;3.40;99.90;;;;;;5005897;28;24620;-57
2023/02/24 08:35:34;;;;;;;64.70;17.53;;;3.40;99.90;;;;;;5011320;28;20466;-59
2023/02/24 08:38:07;;;;;;;163.50;20.77;;;3.50;99.90;;;;;;4993167;28;21168;-57
2023/02/24 08:40:38;;;;;;;62.10;16.50;;;3.40;99.90;;;;;;4997443;28;21000;-61
2023/02/24 08:43:15;;;;;;;43.67;16.73;;;3.40;99.90;;;;;;5005609;28;20444;-57
2023/02/24 08:46:02;;;;;;;42.37;15.20;;;3.50;99.90;;;;;;5010176;28;20446;-57
2023/02/24 08:48:37;;;;;;;40.00;14.63;;;3.60;99.90;;;;;;5013816;28;20438;-56
2023/02/24 08:51:03;;;;;;;61.37;15.93;;;3.70;99.90;;;;;;5009681;28;20437;-57
2023/02/24 08:53:30;;;;;;;30.13;14.20;;;3.70;99.90;;;;;;5009504;28;20853;-57
2023/02/24 08:56:08;;;;;;;52.17;14.30;;;3.80;99.90;;;;;;5012106;28;20271;-57
2023/02/24 08:58:38;;;;;;;24.10;12.13;;;3.90;99.90;;;;;;5001133;28;20624;-57
2023/02/24 09:01:04;;;;;;;17.57;11.60;;;4.00;99.90;;;;;;5008686;28;20423;-56
2023/02/24 09:03:32;;;;;;;25.77;12.97;;;4.10;99.90;;;;;;5009450;28;20451;-57
2023/02/24 09:06:04;;;;;;;27.50;11.87;;;4.20;99.90;;;;;;5008946;28;20181;-56
2023/02/24 09:08:31;;;;;;;26.70;13.60;;;4.30;99.90;;;;;;5006908;28;20440;-58
2023/02/24 09:10:59;;;;;;;30.43;15.00;;;4.40;99.90;;;;;;5009058;28;20870;-57
2023/02/24 09:13:31;;;;;;;31.83;13.53;;;4.50;99.90;;;;;;5016882;28;20470;-57
2023/02/24 09:16:01;;;;;;;24.83;13.23;;;4.60;99.90;;;;;;5008008;28;21077;-58
2023/02/24 09:18:37;;;;;;;29.77;13.10;;;4.70;99.90;;;;;;5003678;28;20494;-58
2023/02/24 09:23:54;;;;;;;25.30;12.33;;;5.00;99.90;;;;;;4995897;28;20465;-58
2023/02/24 09:26:20;;;;;;;22.70;12.73;;;5.20;99.90;;;;;;5010448;28;20517;-60
2023/02/24 09:28:53;;;;;;;22.30;12.93;;;5.30;99.90;;;;;;5008352;28;20272;-57
2023/02/24 09:31:22;;;;;;;18.00;10.67;;;5.40;99.90;;;;;;5006037;28;20435;-58
2023/02/24 09:33:52;;;;;;;22.13;10.27;;;5.50;99.90;;;;;;5006472;28;20459;-56
2023/02/24 09:36:19;;;;;;;24.67;11.50;;;5.40;99.90;;;;;;5007779;28;20530;-57
2023/02/24 09:41:53;;;;;;;25.77;11.63;;;5.50;99.90;;;;;;5007652;28;20435;-57
2023/02/24 09:44:39;;;;;;;25.33;12.10;;;5.50;99.90;;;;;;5004434;28;20467;-58
2023/02/24 09:47:14;;;;;;;25.30;12.73;;;5.50;99.90;;;;;;5007541;28;20506;-58
2023/02/24 09:49:57;;;;;;;27.30;12.17;;;5.60;99.90;;;;;;5006068;28;20426;-58
2023/02/24 09:52:49;;;;;;;20.37;9.73;;;5.70;99.90;;;;;;5011909;28;20439;-59
2023/02/24 09:55:26;;;;;;;15.33;9.70;;;5.90;99.90;;;;;;5012655;28;20438;-58
2023/02/24 09:58:22;;;;;;;20.83;10.63;;;6.10;99.90;;;;;;5004818;28;20496;-58
2023/02/24 10:01:19;;;;;;;20.60;10.70;;;6.20;99.90;;;;;;5002076;28;20436;-57
2023/02/24 10:04:05;;;;;;;24.30;13.27;;;6.30;99.90;;;;;;5003666;28;20447;-58
2023/02/24 10:06:36;;;;;;;23.57;12.60;;;6.50;99.90;;;;;;5006260;28;20553;-57
2023/02/24 10:09:10;;;;;;;27.07;13.40;;;6.70;99.90;;;;;;5004294;28;20436;-57
2023/02/24 10:11:52;;;;;;;20.47;12.07;;;6.80;99.90;;;;;;5001522;28;20431;-59
2023/02/24 10:14:38;;;;;;;23.90;11.87;;;6.80;99.90;;;;;;5008285;28;20986;-58
2023/02/24 10:17:23;;;;;;;25.60;12.07;;;6.80;99.90;;;;;;5009260;28;20478;-56
2023/02/24 10:20:12;;;;;;;25.30;12.30;;;6.80;99.90;;;;;;5006175;28;20435;-58
2023/02/24 10:22:51;;;;;;;28.87;14.47;;;6.80;99.90;;;;;;4993041;28;20891;-57
2023/02/24 10:25:34;;;;;;;25.27;12.10;;;6.90;99.90;;;;;;5004579;28;20427;-58
2023/02/24 10:28:11;;;;;;;31.67;14.17;;;7.00;99.90;;;;;;5005686;28;20509;-57
2023/02/24 10:31:02;;;;;;;26.17;13.87;;;7.30;99.90;;;;;;5015545;28;20446;-59
2023/02/24 10:33:44;;;;;;;34.50;11.13;;;7.50;99.90;;;;;;5009380;28;20474;-58
2023/02/24 10:36:25;;;;;;;29.60;12.13;;;7.90;99.90;;;;;;5003703;28;20432;-59
2023/02/24 10:38:55;;;;;;;36.40;13.20;;;8.20;99.90;;;;;;4997889;28;20462;-58
2023/02/24 10:41:27;;;;;;;21.90;11.40;;;8.70;99.90;;;;;;4997388;28;20474;-58
2023/02/24 10:43:57;;;;;;;26.13;10.73;;;9.00;99.90;;;;;;5004292;28;21351;-57
2023/02/24 10:46:33;;;;;;;20.00;10.80;;;9.20;99.90;;;;;;4996640;28;20436;-58
2023/02/24 10:49:01;;;;;;;19.50;10.67;;;9.50;99.90;;;;;;4995412;28;20568;-60
2023/02/24 10:51:37;;;;;;;20.40;10.30;;;9.70;99.90;;;;;;5001694;28;20522;-57
2023/02/24 10:54:43;;;;;;;25.80;11.87;;;9.80;99.90;;;;;;5009655;28;20454;-58
2023/02/24 10:57:17;;;;;;;24.23;10.17;;;10.00;99.90;;;;;;5001905;28;20442;-58
2023/02/24 11:03:09;;;;;;;25.20;9.93;;;10.20;99.90;;;;;;5009298;28;20493;-59
2023/02/24 11:08:35;;;;;;;20.77;8.73;;;10.30;99.90;;;;;;5013726;28;20420;-59
2023/02/24 11:11:24;;;;;;;18.90;9.70;;;10.40;99.90;;;;;;5007286;28;20436;-58
2023/02/24 11:19:40;;;;;;;19.47;8.80;;;11.10;99.90;;;;;;5010674;28;20482;-58
2023/02/24 11:22:11;;;;;;;24.20;9.23;;;11.30;99.90;;;;;;5001188;28;20957;-59
2023/02/24 11:24:38;;;;;;;23.07;8.20;;;11.60;99.90;;;;;;4998377;28;20435;-59
2023/02/24 11:27:04;;;;;;;17.20;9.03;;;12.00;99.90;;;;;;5009565;28;20404;-59
2023/02/24 11:29:36;;;;;;;19.10;9.50;;;12.30;99.90;;;;;;5006714;28;20921;-60
2023/02/24 11:32:20;;;;;;;26.80;8.77;;;12.80;95.60;;;;;;5007373;28;21011;-60
2023/02/24 11:35:11;;;;;;;18.37;7.97;;;13.20;91.20;;;;;;5008269;28;20435;-60
2023/02/24 11:37:41;;;;;;;21.30;8.33;;;13.70;86.50;;;;;;5008015;28;20455;-61
2023/02/24 11:40:26;;;;;;;20.57;8.40;;;14.00;78.60;;;;;;5000808;28;20482;-62
2023/02/24 11:43:17;;;;;;;15.03;8.53;;;14.20;73.90;;;;;;5009595;28;20886;-59
2023/02/24 11:46:00;;;;;;;17.87;7.80;;;14.40;72.10;;;;;;5009635;28;20442;-59
2023/02/24 11:48:40;;;;;;;28.57;8.40;;;14.80;70.10;;;;;;5004737;28;20435;-60
2023/02/24 11:51:30;;;;;;;28.37;7.87;;;15.00;66.00;;;;;;5009354;28;20431;-60
2023/02/24 11:54:00;;;;;;;13.27;7.33;;;14.80;63.20;;;;;;4991918;28;20520;-60
2023/02/24 11:56:35;;;;;;;21.10;6.90;;;14.40;64.20;;;;;;4991587;28;20979;-60
2023/02/24 11:59:17;;;;;;;19.43;6.50;;;14.00;64.90;;;;;;5006509;28;20839;-59
2023/02/24 12:01:54;;;;;;;16.70;5.50;;;13.50;63.80;;;;;;5000260;28;20565;-60
2023/02/24 12:04:30;;;;;;;17.83;6.40;;;13.20;65.70;;;;;;5001779;28;20479;-59
2023/02/24 12:07:19;;;;;;;15.67;6.50;;;12.90;69.10;;;;;;5004050;28;20427;-59
2023/02/24 12:09:49;;;;;;;12.27;5.40;;;12.60;68.70;;;;;;5006077;28;20455;-59
2023/02/24 12:12:17;;;;;;;16.17;6.70;;;12.40;70.80;;;;;;5004505;28;20459;-58
2023/02/24 12:15:03;;;;;;;23.00;5.87;;;12.20;73.20;;;;;;5010912;28;20829;-59
2023/02/24 12:18:00;;;;;;;13.43;6.10;;;12.00;77.00;;;;;;5003192;28;20459;-60
2023/02/24 12:20:40;;;;;;;17.13;6.70;;;12.00;80.30;;;;;;4983216;28;20504;-57
2023/02/24 12:23:18;;;;;;;32.70;6.80;;;11.90;81.20;;;;;;4998493;28;20447;-56
2023/02/24 12:25:57;;;;;;;23.23;7.63;;;11.80;82.80;;;;;;4997828;28;20431;-59
2023/02/24 12:28:32;;;;;;;13.73;6.27;;;11.80;83.00;;;;;;5005297;28;20430;-53
2023/02/24 12:31:01;;;;;;;19.93;6.20;;;11.70;86.10;;;;;;4992677;28;20485;-54
2023/02/24 12:33:36;;;;;;;18.27;7.17;;;11.60;87.10;;;;;;4997294;28;20899;-53
2023/02/24 12:36:24;;;;;;;16.73;6.40;;;11.50;87.60;;;;;;5020741;28;20512;-54
2023/02/24 12:39:14;;;;;;;20.20;6.13;;;11.50;90.00;;;;;;5003882;28;20462;-54
2023/02/24 12:42:05;;;;;;;19.97;6.40;;;11.50;89.90;;;;;;4997613;28;21013;-58
2023/02/24 12:44:31;;;;;;;20.80;6.33;;;11.50;90.00;;;;;;4996230;28;20505;-58
2023/02/24 12:47:12;;;;;;;16.87;5.40;;;11.50;87.00;;;;;;4998923;28;20463;-56
2023/02/24 12:50:05;;;;;;;15.47;5.27;;;11.40;87.10;;;;;;5004071;28;20435;-56
2023/02/24 12:53:00;;;;;;;15.63;5.53;;;11.40;87.20;;;;;;5004447;28;20987;-58
2023/02/24 12:55:35;;;;;;;14.73;5.47;;;11.40;84.70;;;;;;5018287;28;20963;-58
2023/02/24 12:58:07;;;;;;;17.17;5.13;;;11.40;83.30;;;;;;4994774;28;20652;-59
2023/02/24 13:00:35;;;;;;;18.67;5.67;;;11.40;82.80;;;;;;4998285;28;20431;-61
2023/02/24 13:03:18;;;;;;;15.20;5.77;;;11.50;82.70;;;;;;4998955;28;20455;-59
2023/02/24 13:05:51;;;;;;;16.83;5.57;;;11.60;82.70;;;;;;5010546;28;20423;-59
2023/02/24 13:08:36;;;;;;;19.97;6.57;;;11.80;81.30;;;;;;5001666;28;20435;-60
2023/02/24 13:11:04;;;;;;;12.27;4.90;;;11.80;79.20;;;;;;5003635;28;20443;-60
2023/02/24 13:13:33;;;;;;;17.27;5.73;;;11.80;80.30;;;;;;5003925;28;20475;-60
2023/02/24 13:15:59;;;;;;;14.17;5.20;;;11.80;80.40;;;;;;4999375;28;20434;-60
2023/02/24 13:18:27;;;;;;;23.93;6.00;;;11.90;78.90;;;;;;5004586;28;20459;-61
2023/02/24 13:21:18;;;;;;;18.00;5.87;;;12.00;78.30;;;;;;4999510;28;20439;-62
2023/02/24 13:24:01;;;;;;;16.03;5.40;;;12.30;77.50;;;;;;5005430;28;20490;-61
2023/02/24 13:26:30;;;;;;;23.50;7.50;;;12.70;78.00;;;;;;5001572;28;20423;-61
2023/02/24 13:29:09;;;;;;;14.60;7.60;;;13.00;75.70;;;;;;5003129;28;20792;-61